KBEC/BEC METAR and TAF weather

Enter ICAO airport designator
Station Type Date Time Source
KBEC METAR 2019/02/23 02:35 UTC NOAA

KBEC 230235Z AUTO 00000KT 7SM RA OVC002 03/03 A2993 RMK AO2 P0004 T00330030


Station Type Date Time Source
KBEC Decoded METAR 2019/02/23 02:35 UTC NOAA

Station name not available
Feb 22, 2019 - 09:35 PM EST / 2019.02.23 0235 UTC
Wind: Calm:0
Visibility: 7 mile(s):0
Sky conditions: overcast
Weather: rain
Precipitation last hour: 0.04 inches
Temperature: 37.9 F (3.3 C)
Dew Point: 37.4 F (3.0 C)
Relative Humidity: 97%
Pressure (altimeter): 29.93 in. Hg (1013 hPa)
ob: KBEC 230235Z AUTO 00000KT 7SM RA OVC002 03/03 A2993 RMK AO2 P0004 T00330030
cycle: 2

Station Type Date Time Source
KBEC TAF UTC NOAA

Error!


Example: see airport list